In Rescue
 
Open Full Screen Window  High Contrast Mode
Wind Gusting 15 knots
09
May 25, 2022 8:21 PM CDT
Present Weather: Mist
Weather Information
Wind Direction
  040 °
Wind Speed
  09 kt (10 mph)
Wind Gust
  15 kt (17 mph)
Altimeter
29.93 in
Visibility
5 SM
Temperature
07° C
45° F
Dewpoint
06° C
43° F
Humidity
93%
1hr Rain Fall
00.00 in.
24hr Rain Fall
00.14 in.
Sky Condition
Overcast @ 500 ft
IFR

METAR KMZH 260121Z AUTO 04009G15KT 5SM BR OVC005 07/06 A2993 RMK AO2

FAA Disclaimer: The data displayed is for advisory purposes only and is not to be used for flight planning or operations.